1976 Severe Tropical Cyclone TED (1976351S13141)


IBTrACS version v04r00. Visit IBTrACS website for data access.
Please direct all questions to the IBTrACS Q and A forum

Storm track - Intensity - Wind Radii - Intensity Data - Source Data - All data

Summary Information

Storm ID 1976351S13141
Start Dec 15 23Z
Landfall Dec 19 05Z, Dec 19 08Z
Max Intensity 101 kt (Dec 18 12Z), 945 mb (Dec 18 08Z)
End Dec 21 00Z
ATCF IDs ,SH041977
Track status Best track data.

Storm track plot

Map of storm track

Intensity plots

Map of storm track

Radial wind information

No radial wind information for this storm


Position and Intensity Table

BASIN ISO_TIME_________ NATURE LAT LON WMO WIND WMO PRES USA WIND BOM WIND BOM PRES DS824 WIND DS824 PRES TD9636 WIND NEUMANN WIND NEUMANN PRES
degrees north degrees east kts mb kts kts mb kts mb kts kts mb
SP 1976-12-15 23:00:00 NR -12.60 140.50 25 1005 25 1005
SP 1976-12-16 00:00:00 TS -12.65 140.28 25 25 1004 20 1005 26 20 1005
SP 03:00:00 TS -12.70 140.07 25 25 1002 25 1003 27 22 1003
SP 05:00:00 TS -12.74 139.93 25 1001 25 25 1001 28 1001 27 24 1001
SP 06:00:00 TS -12.75 139.86 25 25 1000 30 1001 28 25 1001
SP 09:00:00 TS -12.80 139.68 27 28 998 32 999 29 30 999
SP 11:00:00 TS -12.84 139.56 30 997 29 30 997 34 997 29 33 997
SP 12:00:00 TS -12.85 139.51 30 30 996 35 997 30 35 997
SP 15:00:00 TS -12.90 139.32 32 33 995 37 995 32 37 995
SP 17:00:00 TS -12.93 139.21 35 994 34 35 994 39 994 34 39 994
SP 18:00:00 TS -12.94 139.16 35 36 993 40 994 35 40 994
SP 21:00:00 TS -12.98 139.01 37 41 991 42 992 37 42 992
SP 23:00:00 TS -12.99 138.92 45 990 39 45 990 44 990 39 44 990
SP 1976-12-17 00:00:00 TS -13.00 138.88 40 46 988 45 990 40 45 990
SP 03:00:00 TS -13.02 138.75 42 51 984 50 986 44 52 986
SP 05:00:00 TS -13.03 138.67 55 982 44 55 982 53 983 47 57 983
SP 06:00:00 TS -13.05 138.63 45 56 980 55 982 48 60 982
SP 09:00:00 TS -13.10 138.50 50 61 976 60 978 52 65 978
SP 11:00:00 TS -13.13 138.42 65 974 53 65 974 63 975 55 68 975
SP 12:00:00 TS -13.15 138.38 55 65 973 65 974 57 70 974
SP 15:00:00 TS -13.19 138.26 62 68 970 70 971 62 72 971
SP 17:00:00 TS -13.23 138.19 70 969 67 70 969 73 969 66 74 969
SP 18:00:00 TS -13.26 138.15 70 71 968 75 969 68 75 969
SP 21:00:00 TS -13.35 138.02 75 76 965 77 966 74 77 966
SP 23:00:00 TS -13.46 137.94 80 964 78 80 964 79 964 78 79 964
SP 1976-12-18 00:00:00 TS -13.53 137.91 80 81 963 80 964 80 80 964
SP 02:00:00 TS -13.69 137.82 85 963 85 85 963 80 963 83 81 963
SP 03:00:00 TS -13.78 137.78 87 86 960 80 963 85 82 963
SP 05:00:00 TS -13.97 137.74 90 955 92 90 955 80 962 88 84 962
SP 06:00:00 TS -14.08 137.74 95 93 951 80 962 90 85 962
SP 08:00:00 TS -14.30 137.78 100 945 96 100 945 81 961 94 85 961
SP 09:00:00 TS -14.42 137.81 97 100 945 82 961 95 85 961
SP 11:00:00 TS -14.67 137.90 100 945 99 100 945 84 960 99 85 960
SP 12:00:00 TS -14.79 137.96 100 100 945 85 960 101 85 960
SP 15:00:00 TS -15.11 138.14 97 100 945 87 957 95 90 957
SP 17:00:00 TS -15.33 138.28 100 945 95 100 945 89 955 91 93 955
SP 18:00:00 TS -15.44 138.35 95 100 945 90 955 90 95 955
SP 21:00:00 TS -15.80 138.54 87 100 945 92 952 84 97 952
SP 23:00:00 TS -16.06 138.69 100 945 82 100 945 94 950 80 99 950
SP 1976-12-19 00:00:00 TS -16.21 138.77 80 100 945 95 950 79 100 950
SP 02:00:00 TS -16.53 138.94 100 945 76 100 945 95 950 72 100 950
SP 03:00:00 TS -16.69 139.03 75 98 946 95 950 69 100 950
SP 05:00:00 TS -17.03 139.21 95 950 71 95 950 95 950 63 100 950
SP 06:00:00 TS -17.19 139.30 70 93 950 95 950 60 100 950
SP 08:00:00 TS -17.50 139.47 90 950 66 90 950 95 950 53 100 950
SP 09:00:00 TS -17.65 139.56 65 90 950 95 950 50 100 950
SP 11:00:00 TS -17.96 139.74 90 950 61 90 950 95 950 44 100 950
SP 12:00:00 TS -18.11 139.84 60 85 953 95 950 41 100 950
SP 14:00:00 TS -18.41 140.07 75 960 56 75 960 86 956 86 956
SP 15:00:00 TS -18.55 140.18 55 71 963 82 960 80 960
SP 17:00:00 TS -18.82 140.37 65 970 51 65 970 74 966 66 966
SP 18:00:00 TS -18.95 140.44 50 60 973 70 970 60 970
SP 20:00:00 TS -19.21 140.54 50 980 46 50 980 64 975 54 975
SP 21:00:00 TS -19.33 140.62 45 48 981 62 977 52 977
SP 23:00:00 TS -19.54 140.73 45 985 41 45 985 57 982 47 982
SP 1976-12-20 00:00:00 TS -19.61 140.80 40 44 985 55 985 45 985
SP 03:00:00 TS -19.73 140.88 41 986 52 986 42 986
SP 05:00:00 TS -19.81 140.87 40 988 40 988 50 987 40 987
SP 06:00:00 TS -19.85 140.87 39 988 50 988 40 988
SP 09:00:00 TS -20.00 140.87 36 990 47 990 37 990
SP 11:00:00 TS -20.10 140.87 35 992 35 992 45 991 35 991
SP 12:00:00 TS -20.15 140.87 33 992 45 992 35 992
SP 15:00:00 TS -20.30 140.87 28 994 40 994 32 994
SP 17:00:00 TS -20.39 140.88 25 996 25 996 36 995 30 995
SP 18:00:00 TS -20.43 140.90 24 996 35 996 30 996
SP 21:00:00 TS -20.57 140.92 21 998 30 998
SP 23:00:00 TS -20.67 140.93 20 1000 20 1000 30 999
SP 1976-12-21 00:00:00 TS -20.70 141.00 30 1000

Source Information

Agency Information
USA bsh041977.txt
TOKYO
CMA
HKO
NEWDELHI
REUNION
BOM IDCKMSTM0S.csv:Line=10604:TED
NADI
WELLINGTON
DS824 aus_area.dat:557:TED
TD9636 cons_worldwide_trop_cyclone_18710101-19891231-006:Line=10265
TD9635
NEUMANN tracks.sh:Storm=481:TED:BSH0477:BM478
MLC

All available IBTrACS Data

SEASON BASIN SUBBASIN ISO_TIME_________ NATURE LAT LON WMO WIND WMO PRES WMO AGENCY DIST2LAND LANDFALL IFLAG USA AGENCY USA ATCF_ID USA LAT USA LON USA WIND USA SSHS BOM LAT BOM LON BOM TYPE BOM WIND BOM PRES BOM CI BOM PRES_METHOD DS824 LAT DS824 LON DS824 STAGE DS824 WIND DS824 PRES TD9636 LAT TD9636 LON TD9636 STAGE TD9636 WIND NEUMANN LAT NEUMANN LON NEUMANN CLASS NEUMANN WIND NEUMANN PRES BOM GUST BOM GUST_PER STORM SPEED STORM DIR
Year degrees north degrees east kts mb km km degrees north degrees east kts 1 degrees north degrees east kts mb 1 degrees north degrees east kts mb degrees north degrees east kts degrees north degrees east kts mb kts second kts degrees
1977 SP EA 1976-12-15 23:00:00 NR -12.60 140.50 25 1005 bom 119 119 ______O_______ -1 -12.60 140.50 20 25 1005 1.50 45 45 13 257
1977 SP EA 1976-12-16 00:00:00 TS -12.65 140.28 141 141 O_____P__OO_O_ jtwc_sh SH041977 -12.70 140.00 25 -1 -12.62 140.43 20 25 1004 -12.60 140.40 TC 20 1005 -12.70 140.00 1 26 -12.60 140.70 TC 20 1005 6 256
1977 SP EA 03:00:00 TS -12.70 140.07 163 163 P_____P__PP_P_ SH041977 -12.75 139.79 25 -1 -12.67 140.23 20 25 1002 -12.65 140.20 TC 25 1003 -12.76 139.82 1 27 -12.65 140.50 TC 22 1003 4 255
1977 SP EA 05:00:00 TS -12.74 139.93 25 1001 bom 184 184 P_____O__PP_P_ SH041977 -12.78 139.66 25 -1 -12.70 140.10 20 25 1001 2.00 -12.68 140.07 TC 28 1001 -12.79 139.70 1 27 -12.68 140.37 TC 24 1001 45 45 4 255
1977 SP EA 06:00:00 TS -12.75 139.86 185 185 O_____P__OP_O_ jtwc_sh SH041977 -12.80 139.60 25 -1 -12.72 140.03 20 25 1000 -12.70 140.00 TC 30 1001 -12.81 139.64 1 28 -12.70 140.30 TC 25 1001 4 254
1977 SP EA 09:00:00 TS -12.80 139.68 207 207 P_____P__PP_P_ SH041977 -12.85 139.44 27 -1 -12.77 139.83 20 28 998 -12.75 139.80 TC 32 999 -12.86 139.47 1 29 -12.75 140.10 TC 30 999 4 254
1977 SP EA 11:00:00 TS -12.84 139.56 30 997 bom 218 218 P_____O__PP_P_ SH041977 -12.88 139.35 29 -1 -12.80 139.70 20 30 997 2.50 -12.78 139.67 TC 34 997 -12.89 139.35 1 29 -12.78 139.97 TC 33 997 45 45 4 254
1977 SP EA 12:00:00 TS -12.85 139.51 227 227 O_____P__OO_O_ jtwc_sh SH041977 -12.90 139.30 30 -1 -12.82 139.63 20 30 996 -12.80 139.60 TC 35 997 -12.90 139.30 1 30 -12.80 139.90 TC 35 997 4 255
1977 SP EA 15:00:00 TS -12.90 139.32 249 248 P_____P__PP_P_ SH041977 -12.96 139.15 32 -1 -12.87 139.43 20 33 995 -12.85 139.39 TC 37 995 -12.93 139.14 1 32 -12.85 139.69 TC 37 995 4 255
1977 SP EA 17:00:00 TS -12.93 139.21 35 994 bom 248 248 P_____O__PP_P_ SH041977 -12.99 139.05 34 0 -12.90 139.30 30 35 994 3.00 -12.88 139.26 TC 39 994 -12.94 139.04 1 34 -12.88 139.56 TC 39 994 49 49 3 255
1977 SP EA 18:00:00 TS -12.94 139.16 248 230 O_____P__OP_O_ jtwc_sh SH041977 -13.00 139.00 35 0 -12.92 139.24 30 36 993 -12.90 139.20 TC 40 994 -12.95 138.99 1 35 -12.90 139.50 TC 40 994 3 257
1977 SP EA 21:00:00 TS -12.98 139.01 230 220 P_____P__PP_P_ SH041977 -13.00 138.85 37 0 -12.97 139.09 30 41 991 -12.96 139.09 TC 42 992 -12.97 138.85 1 37 -12.96 139.34 TC 42 992 3 258
1977 SP EA 23:00:00 TS -12.99 138.92 45 990 bom 220 220 P_____O__PP_P_ SH041977 -13.00 138.75 39 0 -13.00 139.00 30 45 990 3.00 -12.99 139.03 TC 44 990 -12.99 138.75 1 39 -12.99 139.24 TC 44 990 64 64 3 260
1977 SP EA 1976-12-17 00:00:00 TS -13.00 138.88 220 210 O_____P__OO_O_ jtwc_sh SH041977 -13.00 138.70 40 0 -13.00 138.96 30 46 988 -13.00 139.00 TC 45 990 -13.00 138.70 2 40 -13.00 139.20 TC 45 990 3 262
1977 SP EA 03:00:00 TS -13.02 138.75 200 200 P_____P__PP_P_ SH041977 -13.04 138.55 42 0 -13.00 138.86 30 51 984 -13.00 138.90 TC 50 986 -13.03 138.54 2 44 -13.00 139.09 TC 52 986 2 261
1977 SP EA 05:00:00 TS -13.03 138.67 55 982 bom 200 190 P_____O__PP_P_ SH041977 -13.08 138.45 44 0 -13.00 138.80 30 55 982 4.00 -13.00 138.83 TC 53 983 -13.05 138.44 2 47 -13.00 139.03 TC 57 983 75 75 2 256
1977 SP EA 06:00:00 TS -13.05 138.63 190 185 O_____P__OP_O_ jtwc_sh SH041977 -13.10 138.40 45 0 -13.01 138.77 30 56 980 -13.00 138.80 TC 55 982 -13.06 138.38 2 48 -13.00 139.00 TC 60 982 3 249
1977 SP EA 09:00:00 TS -13.10 138.50 185 176 P_____P__PP_P_ SH041977 -13.14 138.24 50 0 -13.07 138.67 30 61 976 -13.05 138.71 TC 60 978 -13.12 138.24 2 52 -13.05 138.90 TC 65 978 3 247
1977 SP EA 11:00:00 TS -13.13 138.42 65 974 bom 176 176 P_____O__PP_P_ SH041977 -13.18 138.14 53 0 -13.10 138.60 40 65 974 4.50 -13.09 138.64 TC 63 975 -13.17 138.14 2 55 -13.09 138.83 TC 68 975 89 89 3 245
1977 SP EA 12:00:00 TS -13.15 138.38 175 165 O_____P__OO_O_ jtwc_sh SH041977 -13.20 138.10 55 0 -13.10 138.57 40 65 973 -13.10 138.60 TC 65 974 -13.20 138.10 2 57 -13.10 138.80 TC 70 974 2 248
1977 SP EA 15:00:00 TS -13.19 138.26 165 155 P_____P__PP_P_ SH041977 -13.28 137.99 62 0 -13.10 138.47 40 68 970 -13.09 138.46 TC 70 971 -13.30 137.96 2 62 -13.10 138.71 TC 72 971 2 247
1977 SP EA 17:00:00 TS -13.23 138.19 70 969 bom 155 151 P_____O__PP_P_ SH041977 -13.35 137.93 67 1 -13.10 138.40 40 70 969 4.50 -13.09 138.35 TC 73 969 -13.39 137.88 2 66 -13.10 138.64 TC 74 969 99 99 3 241
1977 SP EA 18:00:00 TS -13.26 138.15 141 131 O_____P__OP_O_ jtwc_sh SH041977 -13.40 137.90 70 1 -13.09 138.36 40 71 968 -13.10 138.30 TC 75 969 -13.44 137.84 2 68 -13.10 138.60 TC 75 969 3 232
1977 SP EA 21:00:00 TS -13.35 138.02 127 123 P_____P__PP_P_ SH041977 -13.58 137.79 75 1 -13.11 138.22 40 76 965 -13.15 138.15 TC 77 966 -13.60 137.75 2 74 -13.10 138.46 TC 77 966 3 224
1977 SP EA 23:00:00 TS -13.46 137.94 80 964 bom 113 113 P_____O__PP_P_ SH041977 -13.72 137.72 78 1 -13.20 138.10 40 80 964 5.00 -13.24 138.05 TC 79 964 -13.73 137.71 2 78 -13.15 138.36 TC 79 964 110 110 4 214
1977 SP EA 1976-12-18 00:00:00 TS -13.53 137.91 113 97 O_____P__OO_O_ jtwc_sh SH041977 -13.80 137.70 80 1 -13.29 138.04 40 81 963 -13.30 138.00 TC 80 964 -13.80 137.70 4 80 -13.20 138.30 TC 80 964 5 208
1977 SP EA 02:00:00 TS -13.69 137.82 85 963 bom 97 97 P_____O__PP_P_ SH041977 -13.96 137.67 85 2 -13.50 137.90 40 85 963 5.00 -13.45 137.87 TC 80 963 -13.93 137.68 4 83 -13.34 138.14 TC 81 963 119 119 6 205
1977 SP EA 03:00:00 TS -13.78 137.78 97 82 P_____P__PP_P_ SH041977 -14.04 137.67 87 2 -13.59 137.82 40 86 960 -13.55 137.81 TC 80 963 -14.00 137.68 4 85 -13.44 138.06 TC 82 963 6 197
1977 SP EA 05:00:00 TS -13.97 137.74 90 955 bom 82 78 P_____O__PP_P_ SH041977 -14.21 137.68 92 2 -13.80 137.70 40 90 955 5.50 -13.77 137.72 TC 80 962 -14.16 137.70 4 88 -13.67 137.94 TC 84 962 124 124 6 189
1977 SP EA 06:00:00 TS -14.08 137.74 78 76 O_____P__OP_O_ jtwc_sh SH041977 -14.30 137.70 95 2 -13.92 137.71 40 93 951 -13.90 137.70 TC 80 962 -14.24 137.71 4 90 -13.80 137.90 TC 85 962 7 172
1977 SP EA 08:00:00 TS -14.30 137.78 100 945 bom 86 86 P_____O__PP_P_ SH041977 -14.46 137.74 96 3 -14.20 137.80 40 100 945 6.00 -14.19 137.75 TC 81 961 -14.41 137.75 4 94 -14.09 137.91 TC 85 961 139 139 7 167
1977 SP EA 09:00:00 TS -14.42 137.81 86 86 P_____P__PP_P_ SH041977 -14.54 137.77 97 3 -14.36 137.83 40 100 945 -14.34 137.80 TC 82 961 -14.50 137.78 4 95 -14.24 137.94 TC 85 961 8 162
1977 SP EA 11:00:00 TS -14.67 137.90 100 945 bom 106 106 P_____O__PP_P_ SH041977 -14.71 137.85 99 3 -14.70 137.90 40 100 945 6.00 -14.65 137.93 TC 84 960 -14.70 137.86 4 99 -14.55 138.04 TC 85 960 139 139 8 160
1977 SP EA 12:00:00 TS -14.79 137.96 121 121 O_____P__OO_O_ jtwc_sh SH041977 -14.80 137.90 100 3 -14.84 137.95 40 100 945 -14.80 138.00 TC 85 960 -14.80 137.90 4 101 -14.70 138.10 TC 85 960 7 153
1977 SP EA 15:00:00 TS -15.11 138.14 130 114 P_____P__PP_P_ SH041977 -15.08 138.09 97 3 -15.19 138.15 40 100 945 -15.16 138.19 TC 87 957 -15.10 138.04 4 95 -15.07 138.29 TC 90 957 7 150
1977 SP EA 17:00:00 TS -15.33 138.28 100 945 bom 119 110 P_____O__PP_P_ SH041977 -15.29 138.23 95 2 -15.40 138.30 40 100 945 6.00 -15.38 138.33 TC 89 955 -15.31 138.17 4 91 -15.29 138.43 TC 93 955 139 139 8 148
1977 SP EA 18:00:00 TS -15.44 138.35 110 96 O_____P__OP_O_ jtwc_sh SH041977 -15.40 138.30 95 2 -15.51 138.36 40 100 945 -15.50 138.40 TC 90 955 -15.43 138.23 4 90 -15.40 138.50 TC 95 955 8 152
1977 SP EA 21:00:00 TS -15.80 138.54 96 89 P_____P__PP_P_ SH041977 -15.77 138.49 87 2 -15.83 138.55 40 100 945 -15.88 138.59 TC 92 952 -15.79 138.45 4 84 -15.73 138.69 TC 97 952 9 153
1977 SP EA 23:00:00 TS -16.06 138.69 100 945 bom 79 67 P_____O__PP_P_ SH041977 -16.05 138.62 82 1 -16.10 138.70 40 100 945 6.00 -16.16 138.73 TC 94 950 -16.06 138.62 4 80 -15.97 138.83 TC 99 950 139 139 9 152
1977 SP EA 1976-12-19 00:00:00 TS -16.21 138.77 70 44 O_____P__OO_O_ jtwc_sh SH041977 -16.20 138.70 80 1 -16.26 138.80 40 100 945 -16.30 138.80 TC 95 950 -16.20 138.70 4 79 -16.10 138.90 TC 100 950 11 152
1977 SP EA 02:00:00 TS -16.53 138.94 100 945 bom 44 22 P_____O__PP_P_ SH041977 -16.52 138.89 76 1 -16.60 139.00 40 100 945 6.00 3 -16.59 138.95 TC 95 950 -16.51 138.88 4 72 -16.42 139.06 TC 100 950 139 139 11 152
1977 SP EA 03:00:00 TS -16.69 139.03 22 0 P_____P__PP_P_ SH041977 -16.69 138.99 75 1 -16.77 139.07 40 98 946 -16.74 139.04 TC 95 950 -16.67 138.97 4 69 -16.59 139.14 TC 100 950 11 153
1977 SP EA 05:00:00 TS -17.03 139.21 95 950 bom 0 0 P_____O__PP_P_ SH041977 -17.03 139.20 71 1 -17.10 139.20 40 95 950 5.50 -17.05 139.21 TC 95 950 -17.01 139.16 4 63 -16.94 139.31 TC 100 950 135 135 11 153
1977 SP EA 06:00:00 TS -17.19 139.30 10 0 O_____P__OP_O_ jtwc_sh SH041977 -17.20 139.30 70 1 -17.24 139.26 40 93 950 -17.20 139.30 TC 95 950 -17.19 139.26 4 60 -17.10 139.40 TC 100 950 11 153
1977 SP EA 08:00:00 TS -17.50 139.47 90 950 bom 0 0 P_____O__PP_P_ SH041977 -17.54 139.48 66 1 -17.50 139.40 40 90 950 -17.51 139.49 TC 95 950 -17.53 139.45 4 53 -17.38 139.55 TC 100 950 124 124 11 152
1977 SP EA 09:00:00 TS -17.65 139.56 0 0 P_____P__PP_P_ SH041977 -17.71 139.57 65 1 -17.63 139.48 40 90 950 -17.66 139.59 TC 95 950 -17.70 139.54 4 50 -17.51 139.62 TC 100 950 11 151
1977 SP EA 11:00:00 TS -17.96 139.74 90 950 bom 0 0 P_____O__PP_P_ SH041977 -18.04 139.73 61 0 -17.90 139.70 40 90 950 3 -17.96 139.79 TC 95 950 -18.04 139.72 4 44 -17.77 139.79 TC 100 950 124 124 11 150
1977 SP EA 12:00:00 TS -18.11 139.84 0 0 O_____P__OO_O_ jtwc_sh SH041977 -18.20 139.80 60 0 -18.06 139.86 40 85 953 -18.10 139.90 TC 95 950 -18.20 139.80 2 41 -17.90 139.90 TC 100 950 11 145
1977 SP EA 14:00:00 TS -18.41 140.07 75 960 bom 0 0 P_____O__PP_P_ SH041977 -18.48 139.95 56 0 -18.40 140.20 40 75 960 -18.38 140.15 TC 86 956 -18.50 139.95 2 -18.20 140.21 TC 86 956 104 104 11 144
1977 SP EA 15:00:00 TS -18.55 140.18 0 0 P_____P__PP_P_ SH041977 -18.61 140.02 55 0 -18.54 140.36 40 71 963 -18.52 140.28 TC 82 960 -18.65 140.02 2 -18.36 140.37 TC 80 960 10 145
1977 SP EA 17:00:00 TS -18.82 140.37 65 970 bom 0 0 P_____O__PP_P_ SH041977 -18.87 140.14 51 0 -18.80 140.60 40 65 970 -18.78 140.51 TC 74 966 -18.92 140.14 2 -18.66 140.68 TC 66 966 89 89 10 148
1977 SP EA 18:00:00 TS -18.95 140.44 0 0 O_____P__OP_O_ jtwc_sh SH041977 -19.00 140.20 50 0 -18.94 140.66 40 60 973 -18.90 140.60 TC 70 970 -19.05 140.20 2 -18.80 140.80 TC 60 970 9 157
1977 SP EA 20:00:00 TS -19.21 140.54 50 980 bom 0 0 P_____O__PP_P_ SH041977 -19.26 140.31 46 0 -19.20 140.70 30 50 980 -19.16 140.72 TC 64 975 -19.31 140.30 2 -19.07 140.93 TC 54 975 69 69 8 156
1977 SP EA 21:00:00 TS -19.33 140.62 0 0 P_____P__PP_P_ SH041977 -19.40 140.36 45 0 -19.31 140.74 30 48 981 -19.29 140.75 TC 62 977 -19.43 140.35 2 -19.19 140.97 TC 52 977 7 152
1977 SP EA 23:00:00 TS -19.54 140.73 45 985 bom 0 0 P_____O__PP_P_ SH041977 -19.66 140.45 41 0 -19.50 140.80 30 45 985 -19.51 140.79 TC 57 982 -19.68 140.45 2 -19.41 141.00 TC 47 982 64 64 7 149
1977 SP EA 1976-12-20 00:00:00 TS -19.61 140.80 0 0 O_____P__OO_O_ jtwc_sh SH041977 -19.80 140.50 40 0 -19.57 140.82 30 44 985 -19.60 140.80 TC 55 985 -19.80 140.50 6 -19.50 141.00 TC 45 985 4 142
1977 SP EA 03:00:00 TS -19.73 140.88 0 0 ______P__P__P_ SH041977 -1 -19.72 140.81 30 41 986 -19.78 140.82 TC 52 986 6 -19.68 141.02 TC 42 986 3 160
1977 SP EA 05:00:00 TS -19.81 140.87 40 988 bom 0 0 ______O__P__P_ SH041977 -1 -19.80 140.80 30 40 988 -19.86 140.81 TC 50 987 6 -19.76 141.01 TC 40 987 55 55 2 192
1977 SP EA 06:00:00 TS -19.85 140.87 0 0 ______P__O__O_ -1 -19.85 140.80 30 39 988 -19.90 140.80 TC 50 988 6 -19.80 141.00 TC 40 988 3 185
1977 SP EA 09:00:00 TS -20.00 140.87 0 0 ______P__P__P_ -1 -20.00 140.80 30 36 990 -20.05 140.80 TC 47 990 6 -19.95 141.00 TC 37 990 3 178
1977 SP EA 11:00:00 TS -20.10 140.87 35 992 bom 0 0 ______O__P__P_ -1 -20.10 140.80 30 35 992 -20.15 140.80 TC 45 991 6 -20.05 141.00 TC 35 991 49 49 3 0
1977 SP EA 12:00:00 TS -20.15 140.87 0 0 ______P__O__O_ -1 -20.15 140.80 30 33 992 -20.20 140.80 TC 45 992 -20.10 141.00 TC 35 992 3 0
1977 SP EA 15:00:00 TS -20.30 140.87 0 0 ______P__P__P_ -1 -20.30 140.80 30 28 994 -20.35 140.80 TC 40 994 -20.25 141.00 TC 32 994 3 176
1977 SP EA 17:00:00 TS -20.39 140.88 25 996 bom 0 0 ______O__P__P_ -1 -20.40 140.80 20 25 996 -20.45 140.80 TC 36 995 -20.35 141.00 TC 30 995 45 45 3 172
1977 SP EA 18:00:00 TS -20.43 140.90 0 0 ______P__O__O_ -1 -20.45 140.80 20 24 996 -20.50 140.80 TC 35 996 -20.40 141.00 TC 30 996 3 166
1977 SP EA 21:00:00 TS -20.57 140.92 0 0 ______P_____P_ -1 -20.60 140.80 20 21 998 TC -20.55 141.00 TC 30 998 3 173
1977 SP EA 23:00:00 TS -20.67 140.93 20 1000 bom 0 0 ______O_____P_ -1 -20.70 140.80 20 20 1000 TC -20.65 141.00 TC 30 999 45 45 3 148
1977 SP EA 1976-12-21 00:00:00 TS -20.70 141.00 0 ____________O_ -1 20 -20.70 141.00 TC 30 1000 4 119